Time;durP1;ratioP1;P1;durP2;ratioP2;P2;SDS_P1;SDS_P2;PMS_P1;PMS_P2;Temp;Humidity;BMP_temperature;BMP_pressure;BME280_temperature;BME280_humidity;BME280_pressure;Samples;Min_cycle;Max_cycle;Signal;HPM_P1;HPM_P2
2020/12/28 00:00:27;;;;;;;2.15;1.88;;;3.50;99.90;;;;;;4870011;28;20037;-77
2020/12/28 00:02:53;;;;;;;3.88;2.88;;;3.40;99.90;;;;;;4876596;28;20064;-76
2020/12/28 00:05:19;;;;;;;3.22;1.85;;;3.30;99.90;;;;;;4862994;28;20553;-76
2020/12/28 00:07:48;;;;;;;0.97;0.97;;;3.30;99.90;;;;;;4880908;28;20111;-76
2020/12/28 00:10:14;;;;;;;3.50;2.30;;;3.20;99.90;;;;;;4910490;28;20037;-76
2020/12/28 00:12:49;;;;;;;7.93;3.33;;;3.20;99.90;;;;;;5023164;28;20324;-76
2020/12/28 00:15:16;;;;;;;4.10;1.90;;;3.10;99.90;;;;;;5042215;28;20107;-75
2020/12/28 00:17:47;;;;;;;1.77;1.67;;;3.20;99.90;;;;;;5022053;28;20025;-75
2020/12/28 00:20:13;;;;;;;15.68;2.08;;;3.20;99.90;;;;;;4978003;28;20033;-75
2020/12/28 00:22:39;;;;;;;2.15;1.95;;;3.10;99.90;;;;;;5021929;28;20026;-75
2020/12/28 00:25:06;;;;;;;3.10;2.58;;;3.00;99.90;;;;;;5025113;28;20812;-75
2020/12/28 00:27:32;;;;;;;5.45;2.30;;;2.90;99.90;;;;;;5021214;28;20088;-75
2020/12/28 00:29:59;;;;;;;5.53;2.73;;;2.80;99.90;;;;;;5020834;28;20443;-75
2020/12/28 00:32:25;;;;;;;6.18;2.10;;;2.80;99.90;;;;;;5013831;28;20333;-75
2020/12/28 00:34:50;;;;;;;2.30;2.03;;;2.80;99.90;;;;;;5011818;28;20029;-75
2020/12/28 00:37:16;;;;;;;1.87;1.77;;;2.80;99.90;;;;;;5014210;28;20385;-75
2020/12/28 00:39:42;;;;;;;3.13;1.80;;;2.70;99.90;;;;;;5022986;28;20052;-76
2020/12/28 00:42:08;;;;;;;4.60;1.90;;;2.70;99.90;;;;;;4887731;28;20504;-75
2020/12/28 00:44:34;;;;;;;1.53;1.43;;;2.70;99.90;;;;;;4897623;28;21774;-76
2020/12/28 00:46:59;;;;;;;2.30;1.80;;;2.70;99.90;;;;;;4892691;28;20132;-76
2020/12/28 00:49:25;;;;;;;2.83;2.40;;;2.70;99.90;;;;;;4906085;28;20022;-76
2020/12/28 00:51:51;;;;;;;5.37;1.80;;;2.70;99.90;;;;;;4891830;28;20027;-77
2020/12/28 00:54:17;;;;;;;6.97;2.57;;;2.60;99.90;;;;;;4890008;28;20101;-75
2020/12/28 00:56:43;;;;;;;2.70;2.27;;;2.60;99.90;;;;;;4892312;28;20041;-76
2020/12/28 00:59:09;;;;;;;2.83;2.13;;;2.50;99.90;;;;;;4892510;28;20041;-75
2020/12/28 01:01:35;;;;;;;2.10;1.90;;;2.50;99.90;;;;;;4881582;28;20030;-75
2020/12/28 01:04:01;;;;;;;10.50;3.67;;;2.50;99.90;;;;;;4908508;28;20018;-75
2020/12/28 01:06:27;;;;;;;3.13;1.60;;;2.40;99.90;;;;;;4892018;28;20029;-75
2020/12/28 01:08:53;;;;;;;5.97;2.07;;;2.50;99.90;;;;;;4894560;28;20052;-75
2020/12/28 01:11:21;;;;;;;1.27;1.17;;;2.50;99.90;;;;;;4894154;28;20026;-76
2020/12/28 01:13:47;;;;;;;5.10;2.92;;;2.50;99.90;;;;;;4889644;28;20065;-76
2020/12/28 01:16:13;;;;;;;1.55;1.45;;;2.50;99.90;;;;;;4895021;28;20053;-75
2020/12/28 01:18:41;;;;;;;2.40;1.73;;;2.50;99.90;;;;;;4890879;28;21178;-75
2020/12/28 01:21:07;;;;;;;1.67;1.58;;;2.50;99.90;;;;;;4906233;28;20444;-75
2020/12/28 01:23:33;;;;;;;1.20;1.02;;;2.50;99.90;;;;;;4898208;28;20018;-75
2020/12/28 01:25:59;;;;;;;1.63;1.50;;;2.60;99.90;;;;;;4910279;28;20128;-76
2020/12/28 01:28:25;;;;;;;1.93;1.77;;;2.60;99.90;;;;;;4895493;28;20022;-76
2020/12/28 01:30:51;;;;;;;2.58;2.30;;;2.60;99.90;;;;;;4908318;28;21900;-75
2020/12/28 01:33:16;;;;;;;3.00;2.70;;;2.60;99.90;;;;;;4895456;28;20064;-76
2020/12/28 01:35:42;;;;;;;2.80;2.53;;;2.60;99.90;;;;;;4899772;28;20044;-76
2020/12/28 01:38:08;;;;;;;1.70;1.60;;;2.60;99.90;;;;;;4893782;28;20053;-75
2020/12/28 01:40:34;;;;;;;3.60;2.63;;;2.60;99.90;;;;;;4893856;28;20841;-75
2020/12/28 01:43:00;;;;;;;1.57;1.47;;;2.60;99.90;;;;;;4894493;28;20084;-76
2020/12/28 01:45:26;;;;;;;6.57;3.40;;;2.60;99.90;;;;;;4894358;28;20930;-76
2020/12/28 01:47:52;;;;;;;6.28;3.65;;;2.50;99.90;;;;;;4891756;28;20041;-75
2020/12/28 01:50:19;;;;;;;3.13;2.67;;;2.50;99.90;;;;;;4910239;28;20168;-76
2020/12/28 01:52:44;;;;;;;;;;;2.50;99.90;;;;;;4916137;28;20032;-76
2020/12/28 01:55:10;;;;;;;2.30;2.10;;;2.50;99.90;;;;;;4901122;28;24709;-76
2020/12/28 01:57:36;;;;;;;1.47;1.37;;;2.50;99.90;;;;;;4915038;28;20049;-75
2020/12/28 02:00:04;;;;;;;3.50;2.83;;;2.60;99.90;;;;;;4917324;28;20041;-75
2020/12/28 02:02:32;;;;;;;4.35;3.20;;;2.70;99.90;;;;;;4899659;28;20029;-75
2020/12/28 02:04:58;;;;;;;2.47;2.08;;;2.80;99.90;;;;;;4896653;28;20025;-75
2020/12/28 02:07:31;;;;;;;8.60;3.60;;;2.90;99.90;;;;;;4899216;28;20179;-75
2020/12/28 02:09:56;;;;;;;5.15;4.07;;;2.90;99.90;;;;;;4918412;28;20705;-75
2020/12/28 02:12:22;;;;;;;2.97;2.30;;;3.00;99.90;;;;;;4900324;28;20060;-75
2020/12/28 02:14:48;;;;;;;20.83;3.37;;;2.90;99.90;;;;;;4898251;28;20336;-75
2020/12/28 02:17:14;;;;;;;5.40;2.90;;;2.80;99.90;;;;;;4896171;28;21822;-75
2020/12/28 02:19:39;;;;;;;3.43;2.60;;;2.70;99.90;;;;;;4894317;28;20026;-75
2020/12/28 02:22:05;;;;;;;4.83;1.87;;;2.60;99.90;;;;;;4898895;28;20317;-75
2020/12/28 02:24:31;;;;;;;2.05;1.88;;;2.60;99.90;;;;;;4896172;28;20022;-75
2020/12/28 02:26:56;;;;;;;2.63;1.53;;;2.50;99.90;;;;;;4896953;28;20030;-75
2020/12/28 02:29:22;;;;;;;7.43;4.37;;;2.50;99.90;;;;;;4899144;28;20033;-75
2020/12/28 02:31:48;;;;;;;3.43;3.17;;;2.60;99.90;;;;;;4916606;28;20026;-75
2020/12/28 02:34:14;;;;;;;3.70;2.03;;;2.60;99.90;;;;;;4912726;28;20029;-76
2020/12/28 02:36:40;;;;;;;6.23;2.47;;;2.70;99.90;;;;;;4913516;28;20641;-77
2020/12/28 02:39:05;;;;;;;3.65;3.35;;;2.70;99.90;;;;;;4896394;28;20116;-75
2020/12/28 02:41:31;;;;;;;7.63;4.30;;;2.80;99.90;;;;;;4899547;28;20968;-75
2020/12/28 02:43:57;;;;;;;5.68;3.42;;;2.80;99.90;;;;;;4897835;28;20050;-76
2020/12/28 02:46:23;;;;;;;6.17;2.33;;;3.00;99.90;;;;;;4899715;28;20424;-74
2020/12/28 02:48:48;;;;;;;3.33;2.93;;;3.00;99.90;;;;;;4899829;28;20079;-74
2020/12/28 02:51:14;;;;;;;3.53;2.30;;;3.00;99.90;;;;;;4913805;28;20022;-75
2020/12/28 02:53:40;;;;;;;4.47;2.93;;;3.10;99.90;;;;;;4901866;28;24638;-75
2020/12/28 02:56:06;;;;;;;5.57;5.10;;;3.10;99.90;;;;;;4900737;28;20978;-74
2020/12/28 02:58:32;;;;;;;5.55;2.67;;;3.20;99.90;;;;;;4900282;28;20021;-75
2020/12/28 03:00:58;;;;;;;4.60;3.43;;;3.10;99.90;;;;;;4899977;28;20034;-74
2020/12/28 03:03:24;;;;;;;3.47;2.70;;;3.10;99.90;;;;;;4899362;28;20945;-75
2020/12/28 03:05:49;;;;;;;2.07;1.97;;;3.20;99.90;;;;;;4894056;28;20108;-75
2020/12/28 03:08:15;;;;;;;7.23;4.47;;;3.20;99.90;;;;;;4897325;28;21392;-75
2020/12/28 03:10:41;;;;;;;5.57;4.53;;;3.20;99.90;;;;;;4896298;28;20021;-75
2020/12/28 03:13:07;;;;;;;4.20;3.70;;;3.20;99.90;;;;;;4894613;28;22689;-74
2020/12/28 03:15:32;;;;;;;4.47;4.13;;;3.20;99.90;;;;;;4898380;28;20034;-74
2020/12/28 03:17:58;;;;;;;6.73;4.13;;;3.30;99.90;;;;;;4914189;28;20022;-74
2020/12/28 03:20:24;;;;;;;5.97;3.87;;;3.30;99.90;;;;;;4915763;28;20048;-73
2020/12/28 03:22:50;;;;;;;14.23;4.27;;;3.30;99.90;;;;;;4901384;28;24455;-74
2020/12/28 03:25:15;;;;;;;13.90;5.00;;;3.30;99.90;;;;;;4898642;28;20323;-73
2020/12/28 03:27:41;;;;;;;2.97;2.13;;;3.30;99.90;;;;;;4898821;28;20115;-74
2020/12/28 03:30:07;;;;;;;5.67;4.93;;;3.30;99.90;;;;;;4897228;28;20126;-75
2020/12/28 03:32:33;;;;;;;7.27;3.30;;;3.30;99.90;;;;;;4897736;28;20904;-74
2020/12/28 03:34:59;;;;;;;3.50;3.20;;;3.30;99.90;;;;;;4898196;28;20072;-75
2020/12/28 03:37:25;;;;;;;4.80;4.40;;;3.30;99.90;;;;;;4898404;28;20041;-76
2020/12/28 03:39:51;;;;;;;6.03;4.40;;;3.30;99.90;;;;;;4897644;28;20024;-73
2020/12/28 03:42:17;;;;;;;5.63;1.77;;;3.20;99.90;;;;;;4899476;28;21203;-74
2020/12/28 03:44:43;;;;;;;3.72;3.33;;;3.20;99.90;;;;;;4895567;28;20432;-75
2020/12/28 03:47:09;;;;;;;3.20;2.97;;;3.20;99.90;;;;;;4897734;28;20517;-74
2020/12/28 03:49:35;;;;;;;4.40;4.00;;;3.20;99.90;;;;;;4893419;28;20341;-74
2020/12/28 03:52:01;;;;;;;7.37;5.43;;;3.20;99.90;;;;;;4912539;28;24933;-75
2020/12/28 03:54:27;;;;;;;5.30;4.63;;;3.20;99.90;;;;;;4896850;28;20123;-74
2020/12/28 03:56:53;;;;;;;5.97;4.27;;;3.20;99.90;;;;;;4917730;28;20095;-74
2020/12/28 03:59:19;;;;;;;8.45;4.97;;;3.20;99.90;;;;;;4894149;28;20503;-74
2020/12/28 04:01:45;;;;;;;14.17;4.97;;;3.10;99.90;;;;;;4897927;28;20033;-75
2020/12/28 04:04:10;;;;;;;11.45;6.50;;;3.10;99.90;;;;;;4898343;28;20029;-74
2020/12/28 04:06:36;;;;;;;3.08;2.95;;;3.10;99.90;;;;;;4898206;28;20060;-73
2020/12/28 04:09:03;;;;;;;3.73;2.53;;;3.20;99.90;;;;;;4895851;28;20064;-73
2020/12/28 04:11:29;;;;;;;6.03;4.72;;;3.10;99.90;;;;;;4911896;28;20032;-73
2020/12/28 04:13:55;;;;;;;8.07;3.77;;;3.20;99.90;;;;;;4914844;28;20121;-74
2020/12/28 04:16:21;;;;;;;9.57;3.87;;;3.20;99.90;;;;;;4894140;28;20034;-74
2020/12/28 04:18:47;;;;;;;4.10;2.70;;;3.20;99.90;;;;;;4897050;28;21088;-74
2020/12/28 04:21:13;;;;;;;7.20;4.93;;;3.20;99.90;;;;;;4896386;28;20061;-74
2020/12/28 04:23:39;;;;;;;6.05;4.22;;;3.20;99.90;;;;;;4895548;28;20120;-74
2020/12/28 04:26:05;;;;;;;5.90;5.10;;;3.20;99.90;;;;;;4895539;28;20034;-74
2020/12/28 04:28:32;;;;;;;11.83;5.73;;;3.10;99.90;;;;;;4893681;28;20640;-75
2020/12/28 04:30:58;;;;;;;6.03;4.43;;;3.20;99.90;;;;;;4894580;28;20017;-74
2020/12/28 04:33:24;;;;;;;3.72;3.35;;;3.20;99.90;;;;;;4891329;28;20033;-75
2020/12/28 04:35:50;;;;;;;12.80;4.73;;;3.20;99.90;;;;;;4891442;28;20493;-75
2020/12/28 04:38:16;;;;;;;14.73;8.35;;;3.20;99.90;;;;;;4907534;28;22516;-75
2020/12/28 04:40:42;;;;;;;4.57;4.17;;;3.10;99.90;;;;;;4910400;28;24811;-74
2020/12/28 04:43:12;;;;;;;13.03;3.80;;;3.10;99.90;;;;;;4893403;28;20030;-75
2020/12/28 04:45:41;;;;;;;4.88;4.22;;;3.10;99.90;;;;;;4893855;28;20496;-74
2020/12/28 04:48:10;;;;;;;6.38;4.25;;;3.00;99.90;;;;;;4894490;28;20040;-74
2020/12/28 04:50:37;;;;;;;11.07;7.50;;;3.00;99.90;;;;;;4914828;28;20030;-75
2020/12/28 04:53:04;;;;;;;14.73;11.20;;;3.00;99.90;;;;;;4892974;28;20026;-75
2020/12/28 04:55:31;;;;;;;20.83;10.07;;;3.00;99.90;;;;;;4894125;28;21848;-75
2020/12/28 04:57:57;;;;;;;9.73;8.57;;;3.00;99.90;;;;;;4900245;28;20042;-74
2020/12/28 05:00:23;;;;;;;18.33;10.65;;;3.00;99.90;;;;;;4896692;28;20459;-74
2020/12/28 05:02:49;;;;;;;12.80;9.57;;;3.00;99.90;;;;;;4892200;28;20618;-75
2020/12/28 05:05:15;;;;;;;8.82;7.20;;;3.10;99.90;;;;;;4894053;28;20029;-74
2020/12/28 05:07:48;;;;;;;13.20;7.30;;;3.10;99.90;;;;;;4890112;28;20076;-76
2020/12/28 05:10:25;;;;;;;16.48;10.20;;;3.10;99.90;;;;;;4907725;28;20037;-75
2020/12/28 05:12:50;;;;;;;;;;;3.10;99.90;;;;;;4894302;28;20028;-76
2020/12/28 05:15:16;;;;;;;4.93;3.93;;;3.10;99.90;;;;;;4896650;28;19921;-75
2020/12/28 05:17:42;;;;;;;13.43;4.37;;;3.10;99.90;;;;;;4891715;28;20088;-74
2020/12/28 05:20:08;;;;;;;11.90;5.53;;;3.10;99.90;;;;;;4890227;28;20022;-75
2020/12/28 05:22:34;;;;;;;12.35;7.68;;;3.10;99.90;;;;;;4892690;28;20026;-74
2020/12/28 05:25:00;;;;;;;8.23;5.93;;;3.10;99.90;;;;;;4896117;28;20021;-75
2020/12/28 05:27:25;;;;;;;9.47;5.97;;;3.00;99.90;;;;;;4896927;28;20026;-75
2020/12/28 05:29:51;;;;;;;2.37;2.27;;;3.00;99.90;;;;;;4898621;28;20025;-75
2020/12/28 05:32:18;;;;;;;5.87;5.37;;;3.00;99.90;;;;;;4893614;28;20022;-74
2020/12/28 05:34:45;;;;;;;5.30;4.80;;;3.00;99.90;;;;;;4898107;28;20056;-75
2020/12/28 05:37:13;;;;;;;3.13;2.50;;;3.10;99.90;;;;;;4898548;28;20128;-75
2020/12/28 05:39:43;;;;;;;6.43;5.75;;;3.10;99.90;;;;;;4914441;28;20026;-76
2020/12/28 05:42:14;;;;;;;5.38;2.65;;;3.10;99.90;;;;;;4913930;28;22055;-75
2020/12/28 05:44:46;;;;;;;7.00;6.32;;;3.10;99.90;;;;;;4914850;28;24980;-75
2020/12/28 05:47:14;;;;;;;6.70;5.30;;;3.10;99.90;;;;;;4907963;28;22470;-75
2020/12/28 05:49:41;;;;;;;4.97;2.85;;;3.10;99.90;;;;;;4899249;28;20022;-75
2020/12/28 05:52:10;;;;;;;10.77;5.38;;;3.10;99.90;;;;;;4901574;28;20072;-75
2020/12/28 05:54:37;;;;;;;4.53;3.15;;;3.10;99.90;;;;;;4915838;28;20041;-75
2020/12/28 05:57:04;;;;;;;3.78;3.38;;;3.10;99.90;;;;;;4899162;28;20041;-75
2020/12/28 05:59:31;;;;;;;7.68;3.83;;;3.10;99.90;;;;;;4900354;28;20651;-75
2020/12/28 06:01:57;;;;;;;;;;;3.10;99.90;;;;;;4897625;28;20026;-75
2020/12/28 06:04:23;;;;;;;3.03;2.67;;;3.10;99.90;;;;;;4895842;28;19914;-75
2020/12/28 06:06:56;;;;;;;6.00;3.83;;;3.00;99.90;;;;;;4914980;28;20699;-76
2020/12/28 06:09:23;;;;;;;4.45;2.38;;;3.00;99.90;;;;;;4901295;28;22988;-76
2020/12/28 06:11:48;;;;;;;4.63;3.78;;;3.00;99.90;;;;;;4897778;28;20417;-75
2020/12/28 06:14:21;;;;;;;14.20;4.27;;;3.00;99.90;;;;;;4897245;28;22164;-75
2020/12/28 06:16:47;;;;;;;3.65;3.22;;;3.00;99.90;;;;;;4895100;28;20792;-74
2020/12/28 06:19:21;;;;;;;15.18;10.93;;;3.00;99.90;;;;;;4898633;28;20376;-75
2020/12/28 06:21:47;;;;;;;7.30;6.38;;;3.00;99.90;;;;;;4895757;28;20091;-75
2020/12/28 06:24:23;;;;;;;5.37;4.43;;;3.00;99.90;;;;;;4898408;28;20022;-74
2020/12/28 06:26:58;;;;;;;8.52;4.20;;;3.00;99.90;;;;;;4892336;28;20026;-75
2020/12/28 06:29:24;;;;;;;5.38;4.88;;;3.00;99.90;;;;;;4898056;28;20045;-75
2020/12/28 06:31:50;;;;;;;3.40;3.10;;;3.00;99.90;;;;;;4913862;28;20157;-75
2020/12/28 06:34:19;;;;;;;11.57;4.53;;;3.00;99.90;;;;;;4891297;28;20026;-75
2020/12/28 06:36:45;;;;;;;3.97;3.60;;;3.00;99.90;;;;;;4893422;28;20496;-74
2020/12/28 06:39:11;;;;;;;5.05;3.40;;;3.10;99.90;;;;;;4894522;28;20087;-75
2020/12/28 06:41:38;;;;;;;5.53;3.50;;;3.10;99.90;;;;;;4894482;28;20752;-75
2020/12/28 06:44:04;;;;;;;8.07;4.10;;;3.10;99.90;;;;;;4898375;28;24645;-75
2020/12/28 06:46:31;;;;;;;2.70;2.50;;;3.10;99.90;;;;;;4912698;28;20482;-75
2020/12/28 06:48:58;;;;;;;9.45;3.58;;;3.10;99.90;;;;;;4910048;28;20030;-76
2020/12/28 06:51:24;;;;;;;6.00;3.40;;;3.10;99.90;;;;;;4897799;28;20731;-74
2020/12/28 06:53:55;;;;;;;4.03;3.08;;;3.10;99.90;;;;;;4910215;28;20069;-75
2020/12/28 06:56:25;;;;;;;2.90;2.47;;;3.20;99.90;;;;;;4898709;28;20565;-75
2020/12/28 06:58:59;;;;;;;5.88;4.00;;;3.30;99.90;;;;;;4893649;28;20022;-75
2020/12/28 07:01:25;;;;;;;15.65;6.65;;;3.30;99.90;;;;;;4892661;28;20025;-75
2020/12/28 07:03:52;;;;;;;10.98;4.07;;;3.30;99.90;;;;;;4893747;28;20065;-75
2020/12/28 07:06:18;;;;;;;;;;;3.30;99.90;;;;;;4892063;28;20346;-74
2020/12/28 07:08:45;;;;;;;4.45;3.95;;;3.30;99.90;;;;;;4893914;28;19936;-75
2020/12/28 07:11:10;;;;;;;6.93;3.45;;;3.40;99.90;;;;;;4912000;28;20029;-75
2020/12/28 07:13:36;;;;;;;2.88;1.92;;;3.40;99.90;;;;;;4895598;28;20594;-75
2020/12/28 07:16:06;;;;;;;22.13;7.27;;;3.50;99.90;;;;;;4895154;28;20755;-75
2020/12/28 07:18:32;;;;;;;6.53;5.28;;;3.40;99.90;;;;;;4894884;28;21055;-74
2020/12/28 07:20:59;;;;;;;13.57;10.05;;;3.40;99.90;;;;;;4894346;28;20033;-74
2020/12/28 07:23:29;;;;;;;12.73;7.65;;;3.40;99.90;;;;;;4892287;28;20037;-75
2020/12/28 07:26:04;;;;;;;10.55;4.60;;;3.40;99.90;;;;;;4892279;28;20443;-74
2020/12/28 07:28:31;;;;;;;2.40;2.20;;;3.40;99.90;;;;;;4894004;28;20172;-76
2020/12/28 07:31:01;;;;;;;3.85;3.55;;;3.30;99.90;;;;;;4894584;28;20195;-74
2020/12/28 07:33:27;;;;;;;4.40;2.83;;;3.40;99.90;;;;;;4892889;28;20037;-74
2020/12/28 07:36:14;;;;;;;14.60;6.18;;;3.40;99.90;;;;;;4893150;28;20034;-73
2020/12/28 07:38:44;;;;;;;;;;;3.40;99.90;;;;;;4896112;28;20132;-75
2020/12/28 07:41:14;;;;;;;1.55;1.45;;;3.30;99.90;;;;;;4893811;28;20560;-74
2020/12/28 07:43:51;;;;;;;7.65;4.70;;;3.40;99.90;;;;;;4891989;28;20021;-74
2020/12/28 07:46:18;;;;;;;12.45;3.40;;;3.30;99.90;;;;;;4908465;28;20324;-74
2020/12/28 07:48:46;;;;;;;6.03;2.40;;;3.30;99.90;;;;;;4907392;28;20117;-74
2020/12/28 07:51:18;;;;;;;2.13;1.50;;;3.30;99.90;;;;;;4893490;28;20029;-75
2020/12/28 07:53:49;;;;;;;1.73;1.60;;;3.30;99.90;;;;;;4893737;28;21136;-76
2020/12/28 07:56:32;;;;;;;2.80;1.33;;;3.30;99.90;;;;;;4893419;28;20041;-75
2020/12/28 07:59:22;;;;;;;3.50;2.53;;;3.30;99.90;;;;;;4895258;28;20069;-75
2020/12/28 08:01:51;;;;;;;1.55;1.45;;;3.40;99.90;;;;;;4895240;28;20022;-75
2020/12/28 08:04:22;;;;;;;12.73;4.25;;;3.40;99.90;;;;;;4895681;28;20026;-75
2020/12/28 08:06:48;;;;;;;3.15;2.85;;;3.40;99.90;;;;;;4913612;28;20116;-75
2020/12/28 08:09:14;;;;;;;10.73;3.90;;;3.40;99.90;;;;;;4891834;28;20045;-75
2020/12/28 08:11:43;;;;;;;5.00;2.70;;;3.40;99.90;;;;;;4894255;28;20033;-75
2020/12/28 08:14:10;;;;;;;7.28;3.95;;;3.40;99.90;;;;;;4909360;28;20028;-75
2020/12/28 08:16:36;;;;;;;2.42;2.15;;;3.40;99.90;;;;;;4900681;28;21727;-75
2020/12/28 08:19:02;;;;;;;2.35;2.25;;;3.30;99.90;;;;;;4895159;28;20657;-75
2020/12/28 08:21:39;;;;;;;3.30;3.00;;;3.50;99.90;;;;;;4910185;28;20033;-75
2020/12/28 08:24:05;;;;;;;;;;;3.40;99.90;;;;;;4908482;28;20026;-75
2020/12/28 08:26:31;;;;;;;7.70;4.53;;;3.50;99.90;;;;;;4895731;28;20335;-78
2020/12/28 08:28:59;;;;;;;7.85;3.58;;;3.50;99.90;;;;;;4894924;28;20436;-74
2020/12/28 08:31:27;;;;;;;4.32;4.00;;;3.50;99.90;;;;;;4902203;28;20029;-76
2020/12/28 08:34:06;;;;;;;7.55;4.15;;;3.60;99.90;;;;;;4894120;28;20033;-75
2020/12/28 08:36:34;;;;;;;3.05;1.63;;;3.60;99.90;;;;;;4892785;28;20041;-75
2020/12/28 08:39:29;;;;;;;2.28;2.03;;;3.60;99.90;;;;;;4892254;28;20046;-76
2020/12/28 08:41:58;;;;;;;3.65;2.83;;;3.70;99.90;;;;;;4892969;28;20069;-76
2020/12/28 08:44:24;;;;;;;2.45;2.17;;;3.70;99.90;;;;;;4876078;28;20030;-75
2020/12/28 08:46:50;;;;;;;1.10;0.85;;;3.70;99.90;;;;;;4891211;28;20109;-77
2020/12/28 08:49:27;;;;;;;1.23;1.20;;;3.70;99.90;;;;;;4847678;28;20041;-75
2020/12/28 08:51:53;;;;;;;3.25;2.20;;;3.80;99.90;;;;;;4864965;28;21275;-75
2020/12/28 08:54:28;;;;;;;2.63;2.40;;;3.80;99.90;;;;;;4860736;28;21585;-75
2020/12/28 08:56:54;;;;;;;2.67;1.42;;;3.90;99.90;;;;;;4849465;28;20436;-75
2020/12/28 08:59:21;;;;;;;1.70;1.30;;;3.90;99.90;;;;;;4864217;28;21296;-75
2020/12/28 09:01:56;;;;;;;1.42;1.33;;;4.00;99.90;;;;;;4952503;28;20302;-77
2020/12/28 09:04:23;;;;;;;2.60;1.60;;;3.90;99.90;;;;;;4999210;28;20018;-76
2020/12/28 09:06:49;;;;;;;1.65;1.30;;;4.00;99.90;;;;;;5005638;28;20029;-76
2020/12/28 09:09:15;;;;;;;2.00;1.38;;;4.00;99.90;;;;;;5012602;28;20025;-75
2020/12/28 09:11:42;;;;;;;1.63;1.53;;;4.00;99.90;;;;;;5010090;28;20050;-76
2020/12/28 09:14:08;;;;;;;;;;;4.10;99.90;;;;;;5010668;28;20080;-76
2020/12/28 09:16:33;;;;;;;3.03;1.85;;;4.10;99.90;;;;;;5005803;28;19913;-76
2020/12/28 09:18:59;;;;;;;1.93;1.00;;;4.10;99.90;;;;;;5007466;28;20080;-76
2020/12/28 09:21:25;;;;;;;0.20;0.20;;;4.10;99.90;;;;;;5030516;28;20261;-75
2020/12/28 09:23:51;;;;;;;1.03;1.03;;;4.10;99.90;;;;;;5030302;28;20064;-76
2020/12/28 09:26:17;;;;;;;1.73;1.07;;;4.00;99.90;;;;;;5034807;28;20033;-74
2020/12/28 09:28:44;;;;;;;1.02;0.63;;;4.10;99.90;;;;;;5040599;28;20041;-76
2020/12/28 09:31:09;;;;;;;1.75;1.58;;;4.10;99.90;;;;;;4954967;28;20076;-75
2020/12/28 09:33:35;;;;;;;1.00;0.88;;;4.10;99.90;;;;;;4903361;28;20829;-77
2020/12/28 09:36:01;;;;;;;1.43;1.33;;;4.20;99.90;;;;;;4888676;28;20804;-75
2020/12/28 09:38:27;;;;;;;1.77;0.70;;;4.30;99.90;;;;;;4886194;28;21252;-74
2020/12/28 09:40:53;;;;;;;1.25;1.00;;;4.30;99.90;;;;;;4888552;28;20029;-76
2020/12/28 09:43:19;;;;;;;4.50;0.85;;;4.30;99.90;;;;;;4890121;28;20026;-74
2020/12/28 09:45:44;;;;;;;1.57;1.37;;;4.30;99.90;;;;;;4902250;28;20026;-75
2020/12/28 09:48:10;;;;;;;1.13;0.88;;;4.40;99.90;;;;;;4891133;28;20030;-75
2020/12/28 09:50:36;;;;;;;2.05;1.88;;;4.40;99.90;;;;;;4893579;28;20030;-75
2020/12/28 09:53:02;;;;;;;1.42;1.17;;;4.40;99.90;;;;;;4886567;28;20029;-75
2020/12/28 09:55:28;;;;;;;3.95;1.92;;;4.40;99.90;;;;;;4890598;28;20248;-75
2020/12/28 09:57:54;;;;;;;1.47;1.37;;;4.40;99.90;;;;;;4934604;28;20034;-76
2020/12/28 10:00:20;;;;;;;0.82;0.82;;;4.40;99.90;;;;;;5020574;28;20290;-75
2020/12/28 10:02:47;;;;;;;2.43;1.23;;;4.40;99.90;;;;;;5027497;28;20033;-76
2020/12/28 10:05:13;;;;;;;;;;;4.40;99.90;;;;;;5026870;28;20033;-75
2020/12/28 10:07:39;;;;;;;0.40;0.40;;;4.50;99.90;;;;;;5028461;28;19909;-76
2020/12/28 10:10:07;;;;;;;0.93;0.93;;;4.50;99.90;;;;;;5025132;28;20049;-77
2020/12/28 10:12:34;;;;;;;0.80;0.68;;;4.60;99.90;;;;;;5043242;28;20030;-76
2020/12/28 10:15:00;;;;;;;3.55;2.10;;;4.70;99.90;;;;;;5029115;28;20051;-76
2020/12/28 10:17:26;;;;;;;0.33;0.33;;;4.70;99.90;;;;;;5043597;28;20447;-76
2020/12/28 10:19:51;;;;;;;1.58;0.98;;;4.70;99.90;;;;;;5037829;28;20366;-76
2020/12/28 10:22:17;;;;;;;0.93;0.77;;;4.80;99.90;;;;;;5020327;28;20111;-76
2020/12/28 10:24:43;;;;;;;1.53;1.23;;;4.90;99.90;;;;;;5027735;28;20033;-75
2020/12/28 10:27:09;;;;;;;0.37;0.37;;;5.00;99.90;;;;;;5026248;28;20368;-76
2020/12/28 10:29:34;;;;;;;0.80;0.80;;;5.10;99.90;;;;;;5027853;28;20033;-75
2020/12/28 10:32:00;;;;;;;0.97;0.87;;;5.10;99.90;;;;;;5024400;28;20037;-76
2020/12/28 10:34:27;;;;;;;1.33;0.70;;;5.10;99.90;;;;;;5012980;28;20039;-75
2020/12/28 10:36:53;;;;;;;4.47;2.13;;;5.10;99.90;;;;;;5028561;28;20030;-76
2020/12/28 10:39:19;;;;;;;1.13;1.07;;;5.20;99.90;;;;;;5045694;28;20040;-75
2020/12/28 10:41:45;;;;;;;2.05;1.45;;;5.20;99.90;;;;;;5028195;28;20790;-77
2020/12/28 10:44:11;;;;;;;0.93;0.93;;;5.20;99.90;;;;;;5027611;28;20034;-77
2020/12/28 10:46:37;;;;;;;0.80;0.73;;;5.30;99.90;;;;;;5026767;28;20032;-76
2020/12/28 10:49:07;;;;;;;0.45;0.43;;;5.30;99.90;;;;;;5041598;28;20033;-75
2020/12/28 10:51:34;;;;;;;0.05;0.05;;;5.30;99.90;;;;;;5025438;28;20107;-76
2020/12/28 10:54:00;;;;;;;1.25;0.77;;;5.30;99.90;;;;;;5025716;28;20029;-76
2020/12/28 10:56:29;;;;;;;0.43;0.43;;;5.30;99.90;;;;;;5026765;28;20041;-77
2020/12/28 10:58:56;;;;;;;14.70;11.18;;;5.30;99.90;;;;;;5027282;28;20063;-77
2020/12/28 11:01:22;;;;;;;;;;;5.40;99.90;;;;;;5013823;28;20026;-75
2020/12/28 11:03:50;;;;;;;2.40;1.98;;;5.50;99.90;;;;;;5028999;28;19909;-76
2020/12/28 11:06:20;;;;;;;3.03;1.40;;;5.60;99.90;;;;;;5040107;28;20068;-76
2020/12/28 11:08:47;;;;;;;1.90;1.25;;;5.70;99.90;;;;;;5024505;28;20033;-76
2020/12/28 11:11:16;;;;;;;1.20;1.15;;;5.80;99.90;;;;;;5044309;28;20033;-77
2020/12/28 11:13:41;;;;;;;1.40;1.10;;;5.90;99.90;;;;;;5034906;28;20026;-75
2020/12/28 11:16:07;;;;;;;0.40;0.40;;;6.10;99.90;;;;;;5041776;28;20041;-76
2020/12/28 11:18:33;;;;;;;3.83;3.43;;;6.20;99.90;;;;;;5013923;28;20022;-75
2020/12/28 11:20:59;;;;;;;2.80;1.20;;;6.20;99.90;;;;;;5031419;28;20030;-76
2020/12/28 11:23:24;;;;;;;1.93;1.83;;;6.10;99.90;;;;;;5027293;28;20032;-75
2020/12/28 11:25:51;;;;;;;0.73;0.73;;;6.10;99.90;;;;;;5026837;28;20034;-76
2020/12/28 11:28:17;;;;;;;2.63;1.67;;;6.20;99.90;;;;;;5031225;28;20325;-76
2020/12/28 11:30:43;;;;;;;3.83;2.25;;;6.30;99.90;;;;;;5009688;28;20033;-76
2020/12/28 11:33:09;;;;;;;4.40;2.23;;;6.30;99.90;;;;;;5032037;28;20139;-77
2020/12/28 11:35:34;;;;;;;1.40;0.87;;;6.40;99.90;;;;;;5019859;28;20029;-77
2020/12/28 11:38:00;;;;;;;2.13;1.23;;;6.50;99.90;;;;;;5011605;28;20095;-76
2020/12/28 11:40:26;;;;;;;0.57;0.40;;;6.40;99.90;;;;;;5004803;28;20018;-75
2020/12/28 11:42:52;;;;;;;1.50;1.23;;;6.40;99.90;;;;;;5031320;28;20030;-75
2020/12/28 11:45:18;;;;;;;1.63;1.23;;;6.40;99.90;;;;;;5014014;28;20451;-77
2020/12/28 11:47:44;;;;;;;0.43;0.43;;;6.30;99.90;;;;;;5028040;28;20717;-76
2020/12/28 11:50:09;;;;;;;0.47;0.47;;;6.30;99.90;;;;;;5020131;28;20123;-76
2020/12/28 11:52:35;;;;;;;0.97;0.60;;;6.30;99.90;;;;;;5020564;28;20033;-75
2020/12/28 11:55:01;;;;;;;0.47;0.47;;;6.30;99.90;;;;;;5034018;28;20443;-77
2020/12/28 11:57:27;;;;;;;0.60;0.60;;;6.40;99.90;;;;;;5026061;28;20059;-76
2020/12/28 11:59:53;;;;;;;10.40;0.77;;;6.30;99.90;;;;;;4999575;28;20030;-76
2020/12/28 12:02:22;;;;;;;3.17;0.60;;;6.20;99.90;;;;;;5023286;28;20109;-76
2020/12/28 12:04:48;;;;;;;21.80;2.75;;;6.10;99.90;;;;;;5042107;28;20136;-77
2020/12/28 12:07:15;;;;;;;5.50;0.90;;;6.10;99.90;;;;;;5033080;28;20123;-77
2020/12/28 12:09:41;;;;;;;2.40;2.13;;;6.00;99.90;;;;;;5010733;28;20034;-76
2020/12/28 12:12:07;;;;;;;1.00;0.93;;;5.80;99.90;;;;;;5014629;28;20021;-75
2020/12/28 12:14:32;;;;;;;2.17;1.80;;;5.70;99.90;;;;;;5027372;28;20025;-77
2020/12/28 12:16:58;;;;;;;0.88;0.82;;;5.60;99.90;;;;;;5027065;28;20096;-75
2020/12/28 12:19:24;;;;;;;0.38;0.38;;;5.60;99.90;;;;;;5028959;28;20029;-76
2020/12/28 12:21:50;;;;;;;0.20;0.20;;;5.50;99.90;;;;;;5025703;28;20331;-80
2020/12/28 12:24:16;;;;;;;3.27;2.67;;;5.40;99.90;;;;;;5030972;28;20462;-76
2020/12/28 12:26:42;;;;;;;3.22;1.08;;;5.40;99.90;;;;;;5033491;28;20555;-74
2020/12/28 12:29:08;;;;;;;0.47;0.47;;;5.40;99.90;;;;;;5041609;28;20121;-74
2020/12/28 12:31:34;;;;;;;0.25;0.25;;;5.30;99.90;;;;;;5028917;28;21832;-74
2020/12/28 12:33:59;;;;;;;0.30;0.30;;;5.30;99.90;;;;;;5032390;28;20037;-75
2020/12/28 12:36:25;;;;;;;5.97;1.87;;;5.30;99.90;;;;;;5014479;28;20113;-75
2020/12/28 12:38:51;;;;;;;2.50;2.13;;;5.30;99.90;;;;;;5026272;28;20056;-74
2020/12/28 12:41:19;;;;;;;6.43;4.28;;;5.30;99.90;;;;;;5022447;28;20037;-74
2020/12/28 12:43:46;;;;;;;4.78;3.38;;;5.20;99.90;;;;;;5021227;28;21094;-75
2020/12/28 12:46:15;;;;;;;3.53;2.08;;;5.30;99.90;;;;;;5045844;28;20025;-75
2020/12/28 12:48:42;;;;;;;0.85;0.85;;;5.30;99.90;;;;;;5024954;28;20116;-75
2020/12/28 12:51:08;;;;;;;0.40;0.40;;;5.30;99.90;;;;;;5041364;28;20358;-74
2020/12/28 12:53:35;;;;;;;1.65;1.25;;;5.30;99.90;;;;;;5027150;28;20060;-75
2020/12/28 12:56:00;;;;;;;2.10;1.73;;;5.30;99.90;;;;;;5023654;28;20104;-75